• Join FlightAware (Why Join?)
  • Login
  • US Flag 
05:06AM EDT


 

Airport Tracker/Info


-or-


 

Live Flight TrackerFlight Track Log ✈ TAM9376 ✈ 28-Jul-2013 ✈ SBBR / BSB - SBCT / CWB

Flight Track Log - Related Links

Times and Time Zones

All times are in EDT time to prevent confusion due to time zone crossing. See the TAM9376 flight status page for this flight to view local times or setup timezone preferences in your user account.

Time Position Orientation Groundspeed Altitude Reporting Facility
EDT Latitude Longitude Course Direction KTS MPH feet Rate Location/Type
03:47PM -15.8670 -47.9220 160° South 10 12  Level FlightAware
03:55PM -15.8650 -47.9260 289° West 18 21 180 Level FlightAware
03:55PM -15.8650 -47.9280 270° West 22 25 300 Level FlightAware
03:58PM -16.0403 -47.9493 187° South  Level Estimated
03:59PM -16.1245 -47.9596 187° South  Level Estimated
04:00PM -16.2087 -47.9699 187° South  Level Estimated
04:01PM -16.2928 -47.9802 187° South  Level Estimated
04:02PM -16.3770 -47.9905 187° South  Level Estimated
04:05PM -16.0464 -47.9502 187° South  Level Estimated
04:06PM -16.1305 -47.9605 187° South  Level Estimated
04:07PM -16.2147 -47.9707 187° South  Level Estimated
04:07PM -15.8630 -47.9250 187° South 55 63  Level FlightAware
04:07PM -15.8630 -47.9190 90° East 115 132 4,800 Level FlightAware
04:07PM -15.8620 -47.8950 88° East 171 197 3,800 4,560 Climbing FlightAware
04:08PM -15.8600 -47.8690 85° East 173 199 4,800 1,500 Climbing FlightAware
04:08PM -15.8580 -47.8440 85° East 200 230 5,300 1,440 Climbing FlightAware
04:09PM -15.8570 -47.8190 88° East 202 232 6,100 1,320 Climbing FlightAware
04:09PM -15.8680 -47.7980 119° Southeast 226 260 6,400 840 Climbing FlightAware
04:10PM -15.9050 -47.8000 183° South 272 313 6,900 1,320 Climbing FlightAware
04:10PM -15.9330 -47.8080 195° South 286 329 7,600 2,160 Climbing FlightAware
04:10PM -15.9640 -47.8170 196° South 292 336 8,600 2,640 Climbing FlightAware
04:11PM -16.0010 -47.8270 195° South 298 343 9,900 1,860 Climbing FlightAware
04:12PM -16.0370 -47.8360 194° South 314 361 10,700 1,260 Climbing FlightAware
04:12PM -16.1170 -47.8500 190° South 361 415 11,600 1,800 Climbing FlightAware
04:13PM -16.1900 -47.8590 187° South 371 427 13,200 2,220 Climbing FlightAware
04:14PM -16.2590 -47.8670 186° South 374 430 14,700 1,980 Climbing FlightAware
04:14PM -16.3200 -47.8750 187° South 379 436 15,900 1,920 Climbing FlightAware
04:15PM -16.3950 -47.8850 187° South 384 442 17,300 1,620 Climbing FlightAware
04:16PM -16.4730 -47.9020 192° South 406 467 18,100 1,200 Climbing FlightAware
04:16PM -16.5560 -47.9190 191° South 417 480 19,100 1,380 Climbing FlightAware
04:17PM -16.6410 -47.9360 191° South 422 486 20,200 1,500 Climbing FlightAware
04:18PM -16.7100 -47.9500 191° South 426 490 21,100 1,620 Climbing FlightAware
04:19PM -16.8260 -47.9730 191° South 425 489 22,800 1,440 Climbing FlightAware
04:19PM -16.9100 -47.9900 191° South 432 497 23,700 1,440 Climbing FlightAware
04:20PM -17.0010 -48.0080 191° South 430 495 25,000 1,680 Climbing FlightAware
04:21PM -17.0900 -48.0270 192° South 427 491 26,200 1,320 Climbing FlightAware
04:22PM -17.1980 -48.0500 191° South 428 493 27,400 1,140 Climbing FlightAware
04:23PM -17.2960 -48.0690 190° South 432 497 28,300 1,020 Climbing FlightAware
04:23PM -17.3760 -48.0850 191° South 435 501 28,900 960 Climbing FlightAware
04:24PM -17.4560 -48.1010 191° South 435 501 29,700 1,080 Climbing FlightAware
04:25PM -17.5280 -48.1160 191° South 435 501 30,400 1,200 Climbing FlightAware
04:25PM -17.5920 -48.1280 190° South 434 499 31,000 1,020 Climbing FlightAware
04:26PM -17.6780 -48.1460 191° South 436 502 31,700 840 Climbing FlightAware
04:27PM -17.7540 -48.1610 191° South 440 506 32,200 840 Climbing FlightAware
04:27PM -17.8250 -48.1750 191° South 439 505 32,800 480 Climbing FlightAware
04:28PM -17.8910 -48.1880 191° South 439 505 32,800  Level FlightAware
04:28PM -17.9520 -48.1990 190° South 439 505 32,800 1,440 Level FlightAware
04:29PM -18.0760 -48.2260 192° South 432 497 34,900 1,800 Climbing FlightAware
04:30PM -18.1570 -48.2420 191° South 429 494 35,600 780 Climbing FlightAware
04:31PM -18.2370 -48.2590 191° South 429 494 36,000 240 Climbing FlightAware
04:31PM -18.3240 -48.2760 191° South 427 491 36,000  Level FlightAware
04:32PM -18.4260 -48.2970 191° South 428 493 36,000  Level FlightAware
04:33PM -18.5100 -48.3140 191° South 428 493 36,000  Level FlightAware
04:34PM -18.5830 -48.3290 191° South 427 491 36,000  Level FlightAware
04:34PM -18.6590 -48.3440 191° South 425 489 36,000  Level FlightAware
04:35PM -18.7460 -48.3620 191° South 423 487 36,000  Level FlightAware
04:35PM -18.8070 -48.3750 191° South 423 487 36,000  Level FlightAware
04:36PM -18.8840 -48.3910 191° South 424 488 36,000  Level FlightAware
04:37PM -18.9700 -48.4080 191° South 425 489 36,000  Level FlightAware
04:37PM -19.0390 -48.4220 191° South 425 489 36,000  Level FlightAware
04:38PM -19.1250 -48.4400 191° South 425 489 36,000  Level FlightAware
04:39PM -19.2030 -48.4560 191° South 426 490 36,000  Level FlightAware
04:40PM -19.2870 -48.4730 191° South 427 491 36,000  Level FlightAware
04:40PM -19.3700 -48.4900 191° South 427 491 36,000  Level FlightAware
04:41PM -19.4480 -48.5060 191° South 427 491 36,000  Level FlightAware
04:42PM -19.5270 -48.5220 191° South 428 493 36,000  Level FlightAware
04:42PM -19.5980 -48.5370 191° South 428 493 36,000  Level FlightAware
04:43PM -19.6860 -48.5550 191° South 428 493 36,000  Level FlightAware
04:44PM -19.7650 -48.5710 191° South 427 491 36,000  Level FlightAware
04:44PM -19.8470 -48.5880 191° South 427 491 36,000  Level FlightAware
04:45PM -19.9290 -48.6050 191° South 428 493 36,000  Level FlightAware
04:46PM -20.0060 -48.6210 191° South 428 493 36,000  Level FlightAware
04:46PM -20.0920 -48.6390 191° South 428 493 36,000  Level FlightAware
04:47PM -20.1620 -48.6540 191° South 426 490 36,000  Level FlightAware
04:48PM -20.2390 -48.6690 190° South 424 488 36,000  Level FlightAware
04:48PM -20.3250 -48.6870 191° South 423 487 36,000  Level FlightAware
04:49PM -20.3940 -48.7020 192° South 422 486 36,000  Level FlightAware
04:50PM -20.4700 -48.7180 191° South 424 488 36,000  Level FlightAware
04:50PM -20.5510 -48.7340 190° South 424 488 36,000  Level FlightAware
04:51PM -20.6290 -48.7510 192° South 424 488 36,000  Level FlightAware
04:52PM -20.7100 -48.7680 191° South 425 489 36,000  Level FlightAware
04:53PM -20.7950 -48.7860 191° South 425 489 36,000  Level FlightAware
04:53PM -20.8730 -48.8020 191° South 424 488 36,000  Level FlightAware
04:54PM -20.9600 -48.8200 191° South 424 488 36,000  Level FlightAware
04:55PM -21.0370 -48.8360 191° South 424 488 36,000  Level FlightAware
04:55PM -21.1060 -48.8510 191° South 423 487 36,000  Level FlightAware
04:56PM -21.1690 -48.8640 191° South 423 487 36,000  Level FlightAware
04:57PM -21.2520 -48.8810 191° South 422 486 36,000  Level FlightAware
04:57PM -21.3250 -48.8970 192° South 422 486 36,000  Level FlightAware
04:58PM -21.4160 -48.9160 191° South 423 487 36,000  Level FlightAware
04:59PM -21.4850 -48.9310 191° South 423 487 36,000  Level FlightAware
04:59PM -21.5610 -48.9470 191° South 423 487 36,000  Level FlightAware
05:00PM -21.6410 -48.9640 191° South 423 487 36,000  Level FlightAware
05:00PM -21.7110 -48.9780 191° South 422 486 36,000  Level FlightAware
05:01PM -21.7900 -48.9950 191° South 421 484 36,000  Level FlightAware
05:02PM -21.8780 -49.0140 191° South 419 482 36,000  Level FlightAware
05:02PM -21.9410 -49.0270 191° South 419 482 36,000  Level FlightAware
05:03PM -22.0220 -49.0450 192° South 419 482 36,000  Level FlightAware
05:04PM -22.1000 -49.0610 191° South 419 482 36,000  Level FlightAware
05:05PM -22.1830 -49.0790 191° South 418 481 36,000  Level FlightAware
05:05PM -22.2590 -49.0950 191° South 419 482 36,000  Level FlightAware
05:06PM -22.3390 -49.1070 188° South 425 489 36,000  Level FlightAware
05:07PM -22.4220 -49.1090 181° South 428 493 36,000  Level FlightAware
05:07PM -22.4950 -49.1100 181° South 427 491 36,000  Level FlightAware
05:08PM -22.5770 -49.1120 181° South 425 489 36,000  Level FlightAware
05:09PM -22.6650 -49.1130 181° South 422 486 36,000  Level FlightAware
05:09PM -22.7320 -49.1140 181° South 420 483 36,000  Level FlightAware
05:10PM -22.8120 -49.1160 181° South 419 482 36,000  Level FlightAware
05:11PM -22.9440 -49.1180 181° South 419 482 36,000  Level FlightAware
05:12PM -23.0280 -49.1200 181° South 418 481 36,000  Level FlightAware
05:13PM -23.1030 -49.1220 181° South 418 481 36,000  Level FlightAware
05:13PM -23.1970 -49.1230 181° South 417 480 36,000  Level FlightAware
05:14PM -23.2700 -49.1250 181° South 416 479 36,000  Level FlightAware
05:15PM -23.3390 -49.1260 181° South 416 479 36,000  Level FlightAware
05:15PM -23.4210 -49.1280 181° South 416 479 36,000  Level FlightAware
05:16PM -23.4970 -49.1300 181° South 417 480 36,000  Level FlightAware
05:16PM -23.5560 -49.1310 181° South 419 482 36,000  Level FlightAware
05:17PM -23.6540 -49.1320 181° South 421 484 36,000  Level FlightAware
05:18PM -23.7320 -49.1340 181° South 422 486 36,000  Level FlightAware
05:19PM -23.8220 -49.1350 181° South 421 484 36,000 -540 Level FlightAware
05:19PM -23.8960 -49.1360 181° South 414 476 35,300 -1,860 Descending FlightAware
05:20PM -23.9840 -49.1380 181° South 410 472 33,400 -2,460 Descending FlightAware
05:21PM -24.0590 -49.1390 181° South 406 467 31,800 -2,640 Descending FlightAware
05:22PM -24.1490 -49.1410 181° South 406 467 29,500 -2,760 Descending FlightAware
05:22PM -24.2250 -49.1430 181° South 413 475 27,800 -2,580 Descending FlightAware
05:23PM -24.3060 -49.1450 181° South 406 467 26,000 -2,640 Descending FlightAware
05:23PM -24.3690 -49.1480 182° South 395 455 24,500 -2,520 Descending FlightAware
05:24PM -24.4470 -49.1730 196° South 377 434 22,700 -2,340 Descending FlightAware
05:25PM -24.5190 -49.1980 198° South 367 422 21,000 -2,220 Descending FlightAware
05:26PM -24.5840 -49.2200 197° South 358 412 19,600 -2,160 Descending FlightAware
05:26PM -24.6530 -49.2440 198° South 347 399 18,000 -2,040 Descending FlightAware
05:27PM -24.7080 -49.2620 197° South 344 396 16,800 -1,860 Descending FlightAware
05:28PM -24.7630 -49.2810 197° South 341 392 15,500 -1,800 Descending FlightAware
05:28PM -24.8090 -49.2970 198° South 341 392 14,500 -1,920 Descending FlightAware
05:29PM -24.8710 -49.3180 197° South 339 390 13,100 -2,400 Descending FlightAware
05:30PM -24.9490 -49.3450 197° South 329 379 11,300 -1,920 Descending FlightAware
05:30PM -25.0040 -49.3640 197° South 304 350 10,700 -1,020 Descending FlightAware
05:31PM -25.0570 -49.3820 197° South 285 328 10,000 -1,080 Descending FlightAware
05:31PM -25.0710 -49.3870 198° South 284 327 9,700 -1,260 Descending FlightAware
05:32PM -25.1110 -49.4010 198° South 277 319 9,100 -1,140 Descending FlightAware
05:32PM -25.1420 -49.4110 196° South 271 312 8,700 -1,080 Descending FlightAware
05:32PM -25.1530 -49.4150 198° South 270 311 8,500 -840 Descending FlightAware
05:33PM -25.1960 -49.4300 198° South 264 304 8,100 -480 Descending FlightAware
05:33PM -25.2280 -49.4410 197° South 252 290 8,000 -120 Descending FlightAware
05:34PM -25.2550 -49.4500 197° South 231 266 8,000 -180 Level FlightAware
05:34PM -25.2700 -49.4530 190° South 230 265 7,900 -1,260 Descending FlightAware
05:34PM -25.2970 -49.4350 149° Southeast 248 285 7,100 -960 Descending FlightAware
05:35PM -25.3190 -49.4090 133° Southeast 232 267 7,000 -360 Descending FlightAware
05:35PM -25.3350 -49.3920 136° Southeast 229 264 6,800 -900 Descending FlightAware
05:36PM -25.3550 -49.3700 135° Southeast 228 262 6,300 -1,200 Descending FlightAware
05:36PM -25.3660 -49.3580 135° Southeast 224 258 6,000 -960 Descending FlightAware
05:36PM -25.3860 -49.3350 134° Southeast 219 252 5,600 -900 Descending FlightAware
05:37PM -25.4060 -49.3120 134° Southeast 209 241 5,200 -420 Descending FlightAware
05:37PM -25.4180 -49.2990 136° Southeast 188 216 5,300  Climbing FlightAware
05:37PM -25.4260 -49.2900 135° Southeast 174 200 5,200 -600 Descending FlightAware
05:38PM -25.4410 -49.2740 136° Southeast 157 181 4,900 -660 Descending FlightAware
05:38PM -25.4550 -49.2580 134° Southeast 149 171 4,600 -840 Descending FlightAware
05:39PM -25.4630 -49.2500 138° Southeast 145 167 4,300 -900 Descending FlightAware
05:39PM -25.4750 -49.2360 134° Southeast 144 166 4,000 -780 Descending FlightAware
05:39PM -25.4850 -49.2240 133° Southeast 144 166 3,700 -720 Descending FlightAware
05:40PM -25.4980 -49.2100 136° Southeast 141 162 3,400 -600 Descending FlightAware
05:40PM -25.5040 -49.2040 138° Southeast 139 160 3,300 -720 Descending FlightAware
05:41PM -25.5170 -49.1880 132° Southeast 135 155 2,900 -900 Descending FlightAware
05:41PM -25.5220 -49.1830 138° Southeast 133 153 2,700 -1,020 Descending FlightAware
05:41PM -25.5300 -49.1740 135° Southeast 25 29 -5,280 Descending FlightAware
05:42PM -25.5310 -49.1730 138° Southeast 19 22  Level FlightAware
05:42PM -25.5320 -49.1730 180° South 13 15  Level FlightAware
05:43PM -25.5320 -49.1740 270° West 19 22  Level FlightAware
05:43PM -25.5330 -49.1730 138° Southeast 31 36  Level FlightAware
05:44PM -25.5340 -49.1730 180° South 21 24  Level FlightAware
05:46PM -25.5285 -49.1758 336° Northwest  Level Estimated
05:47PM -25.5285 -49.1758 42° Northeast  Level Estimated
05:48PM -25.5285 -49.1758 42° Northeast  Level Estimated
05:49PM -25.5285 -49.1758 42° Northeast  Level Estimated
05:50PM -25.5285 -49.1758 42° Northeast  Level Estimated
05:51PM -25.5285 -49.1758 42° Northeast  Level Estimated
05:52PM -25.5285 -49.1758 42° Northeast  Level Estimated
05:53PM -25.5285 -49.1758 42° Northeast  Level Estimated
05:54PM -25.5285 -49.1758 42° Northeast  Level Estimated
05:55PM -25.5285 -49.1758 42° Northeast  Level Estimated
05:56PM -25.5285 -49.1758 42° Northeast  Level Estimated
05:57PM -25.5285 -49.1758 42° Northeast  Level Estimated
05:58PM -25.5285 -49.1758 42° Northeast  Level Estimated
05:59PM -25.5285 -49.1758 42° Northeast  Level Estimated
06:00PM -25.5285 -49.1758 42° Northeast  Level Estimated
06:01PM -25.5285 -49.1758 42° Northeast  Level Estimated
06:02PM -25.5285 -49.1758 42° Northeast  Level Estimated
06:03PM -25.5285 -49.1758 42° Northeast  Level Estimated
06:04PM -25.5285 -49.1758 42° Northeast  Level Estimated
06:05PM -25.5285 -49.1758 42° Northeast  Level Estimated
06:06PM -25.5285 -49.1758 42° Northeast  Level Estimated
06:07PM -25.5285 -49.1758 42° Northeast  Level Estimated